Time;durP1;ratioP1;P1;durP2;ratioP2;P2;SDS_P1;SDS_P2;PMS_P1;PMS_P2;Temp;Humidity;BMP_temperature;BMP_pressure;BME280_temperature;BME280_humidity;BME280_pressure;Samples;Min_cycle;Max_cycle;Signal;HPM_P1;HPM_P2
2021/05/30 00:01:27;;;;;;;6.88;4.78;;;;;;;8.18;100.00;97063.28;4986158;28;20065;-60
2021/05/30 00:03:56;;;;;;;5.70;5.03;;;;;;;8.19;100.00;97070.25;4986192;28;20081;-60
2021/05/30 00:06:28;;;;;;;5.93;5.30;;;;;;;8.13;100.00;97062.81;4988837;28;20082;-60
2021/05/30 00:08:56;;;;;;;7.68;5.13;;;;;;;8.05;100.00;97073.88;4983762;28;20476;-60
2021/05/30 00:11:24;;;;;;;4.70;4.30;;;;;;;7.83;100.00;97071.16;4985323;28;20739;-60
2021/05/30 00:14:12;;;;;;;4.50;4.10;;;;;;;7.69;100.00;97069.53;4980275;28;20082;-60
2021/05/30 00:16:40;;;;;;;5.10;4.20;;;;;;;7.84;100.00;97072.81;4985481;28;20062;-61
2021/05/30 00:19:09;;;;;;;4.70;4.30;;;;;;;7.87;100.00;97069.16;4986538;28;20476;-60
2021/05/30 00:21:38;;;;;;;7.45;4.85;;;;;;;7.81;100.00;97066.03;4987654;28;20078;-61
2021/05/30 00:24:06;;;;;;;5.93;4.15;;;;;;;7.77;100.00;97068.97;4985602;28;20483;-61
2021/05/30 00:26:35;;;;;;;5.00;4.50;;;;;;;7.83;100.00;97066.75;4984459;28;20073;-61
2021/05/30 00:29:03;;;;;;;5.20;4.50;;;;;;;7.66;100.00;97066.31;4986266;28;20073;-61
2021/05/30 00:31:31;;;;;;;5.35;4.85;;;;;;;7.55;100.00;97069.72;4983431;28;20066;-61
2021/05/30 00:33:59;;;;;;;5.78;5.18;;;;;;;7.53;100.00;97064.56;4986147;28;20101;-60
2021/05/30 00:36:28;;;;;;;5.10;4.57;;;;;;;7.58;100.00;97072.13;4985085;28;20092;-61
2021/05/30 00:38:57;;;;;;;5.70;5.13;;;;;;;7.63;100.00;97064.72;4985571;28;20070;-61
2021/05/30 00:41:25;;;;;;;5.70;4.82;;;;;;;7.68;100.00;97059.16;4984925;28;20066;-60
2021/05/30 00:43:54;;;;;;;5.57;5.07;;;;;;;7.58;100.00;97064.25;4984854;28;20066;-60
2021/05/30 00:46:23;;;;;;;7.28;5.47;;;;;;;7.54;100.00;97061.00;4984349;28;20069;-60
2021/05/30 00:48:52;;;;;;;5.82;5.10;;;;;;;7.63;100.00;97061.28;4988419;28;20088;-61
2021/05/30 00:51:20;;;;;;;5.65;5.15;;;;;;;7.60;100.00;97049.19;4980780;28;20395;-61
2021/05/30 00:53:49;;;;;;;5.35;4.80;;;;;;;7.67;100.00;97060.09;4987897;28;20069;-61
2021/05/30 00:56:16;;;;;;;5.72;5.10;;;;;;;7.41;100.00;97065.47;4982007;28;20081;-60
2021/05/30 00:58:45;;;;;;;4.90;4.50;;;;;;;7.37;100.00;97056.97;4987560;28;20081;-60
2021/05/30 01:01:13;;;;;;;4.97;4.57;;;;;;;7.45;100.00;97055.56;4984531;28;20107;-61
2021/05/30 01:03:41;;;;;;;5.20;4.80;;;;;;;7.40;100.00;97052.44;4988721;28;20085;-61
2021/05/30 01:06:10;;;;;;;5.80;5.20;;;;;;;7.33;100.00;97057.31;4980368;28;20042;-60
2021/05/30 01:08:38;;;;;;;6.57;5.07;;;;;;;7.19;100.00;97060.91;4984682;28;20065;-61
2021/05/30 01:11:14;;;;;;;5.07;4.63;;;;;;;7.17;100.00;97057.53;4983674;28;20724;-61
2021/05/30 01:13:44;;;;;;;5.43;4.93;;;;;;;7.18;100.00;97061.84;4987085;28;20065;-61
2021/05/30 01:16:14;;;;;;;6.73;5.03;;;;;;;7.17;100.00;97067.22;4985813;28;20111;-60
2021/05/30 01:18:43;;;;;;;6.05;5.45;;;;;;;7.12;100.00;97063.13;4984615;28;20085;-61
2021/05/30 01:21:11;;;;;;;6.38;5.40;;;;;;;7.08;100.00;97066.88;4986956;28;20074;-61
2021/05/30 01:23:40;;;;;;;6.43;5.47;;;;;;;7.01;100.00;97063.03;4982203;28;20560;-61
2021/05/30 01:26:08;;;;;;;5.82;5.18;;;;;;;6.98;100.00;97065.03;4985010;28;20134;-61
2021/05/30 01:28:37;;;;;;;5.65;5.15;;;;;;;7.07;100.00;97064.38;4984427;28;20517;-64
2021/05/30 01:31:05;;;;;;;5.72;5.22;;;;;;;6.89;100.00;97059.50;4984570;28;20081;-61
2021/05/30 01:33:33;;;;;;;4.90;4.40;;;;;;;6.85;100.00;97065.91;4984295;28;20097;-61
2021/05/30 01:36:01;;;;;;;6.30;5.18;;;;;;;6.86;100.00;97064.94;4986674;28;20074;-60
2021/05/30 01:38:29;;;;;;;5.93;5.25;;;;;;;6.86;100.00;97064.94;4982272;28;20070;-62
2021/05/30 01:40:58;;;;;;;6.35;5.38;;;;;;;6.85;100.00;97071.13;4982498;28;20042;-61
2021/05/30 01:43:27;;;;;;;5.95;5.43;;;;;;;6.80;100.00;97067.16;4983282;28;20089;-62
2021/05/30 01:45:55;;;;;;;7.15;5.47;;;;;;;6.71;100.00;97071.25;4985015;28;20150;-62
2021/05/30 01:48:23;;;;;;;6.00;5.50;;;;;;;6.70;100.00;97068.72;4987898;28;20078;-61
2021/05/30 01:50:51;;;;;;;5.75;5.25;;;;;;;6.75;100.00;97079.75;4984752;28;20532;-64
2021/05/30 01:53:26;;;;;;;8.18;5.63;;;;;;;6.85;100.00;97073.75;4984927;28;20069;-62
2021/05/30 01:58:40;;;;;;;6.55;5.43;;;;;;;6.77;100.00;97076.06;4979854;28;20074;-60
2021/05/30 02:01:11;;;;;;;6.93;5.35;;;;;;;6.77;100.00;97078.69;4985179;28;20567;-59
2021/05/30 02:03:40;;;;;;;6.00;5.20;;;;;;;6.77;100.00;97076.06;4989450;28;20078;-62
2021/05/30 02:06:08;;;;;;;6.90;5.20;;;;;;;6.73;100.00;97077.22;4985474;28;20636;-62
2021/05/30 02:08:39;;;;;;;5.40;4.90;;;;;;;6.67;100.00;97069.78;4986815;28;20072;-62
2021/05/30 02:11:09;;;;;;;5.93;5.13;;;;;;;6.65;100.00;97077.75;4986279;28;21578;-61
2021/05/30 02:13:38;;;;;;;7.43;5.10;;;;;;;6.60;100.00;97079.00;4984865;28;20066;-59
2021/05/30 02:16:06;;;;;;;6.18;5.57;;;;;;;6.59;100.00;97079.94;4986855;28;20081;-60
2021/05/30 02:18:35;;;;;;;8.43;5.88;;;;;;;6.41;100.00;97092.53;4991429;28;20074;-60
2021/05/30 02:21:03;;;;;;;6.25;5.65;;;;;;;6.33;100.00;97093.03;4986061;28;20061;-60
2021/05/30 02:23:31;;;;;;;6.60;6.00;;;;;;;6.28;100.00;97096.91;4990329;28;20062;-62
2021/05/30 02:26:03;;;;;;;5.70;5.10;;;;;;;6.37;100.00;97094.50;4986248;28;20073;-62
2021/05/30 02:28:32;;;;;;;6.45;5.85;;;;;;;6.31;100.00;97088.84;4988597;28;20077;-62
2021/05/30 02:31:01;;;;;;;6.90;5.20;;;;;;;6.29;100.00;97096.78;4987447;28;20066;-61
2021/05/30 02:33:29;;;;;;;5.90;5.30;;;;;;;6.44;100.00;97091.47;4989557;28;20074;-61
2021/05/30 02:35:57;;;;;;;6.35;5.75;;;;;;;6.42;100.00;97088.94;4985616;28;20080;-62
2021/05/30 02:38:25;;;;;;;5.90;5.40;;;;;;;6.39;100.00;97087.38;4987163;28;20065;-61
2021/05/30 02:40:53;;;;;;;5.78;5.28;;;;;;;6.37;100.00;97081.41;4985136;28;20440;-61
2021/05/30 02:43:22;;;;;;;5.10;4.70;;;;;;;6.32;100.00;97085.28;4987033;28;20061;-61
2021/05/30 02:45:50;;;;;;;5.15;4.70;;;;;;;6.19;100.00;97090.47;4988756;28;20081;-63
2021/05/30 02:48:19;;;;;;;5.22;4.72;;;;;;;6.13;100.00;97083.06;4986068;28;20605;-61
2021/05/30 02:50:58;;;;;;;5.13;4.60;;;;;;;6.05;100.00;97088.78;4986091;28;20097;-60
2021/05/30 02:53:26;;;;;;;6.63;5.10;;;;;;;6.15;100.00;97091.63;4987269;28;20117;-60
2021/05/30 02:55:54;;;;;;;6.63;5.35;;;;;;;6.17;100.00;97097.63;4984016;28;20073;-61
2021/05/30 02:58:22;;;;;;;6.55;5.72;;;;;;;6.13;100.00;97096.16;4989244;28;20073;-60
2021/05/30 03:00:51;;;;;;;5.88;5.38;;;;;;;6.16;100.00;97101.19;4988501;28;20096;-61
2021/05/30 03:03:20;;;;;;;5.40;4.90;;;;;;;6.01;100.00;97103.00;4987632;28;20409;-61
2021/05/30 03:05:48;;;;;;;5.03;4.63;;;;;;;6.02;100.00;97099.47;4986219;28;20073;-61
2021/05/30 03:08:16;;;;;;;4.68;4.28;;;;;;;5.87;100.00;97108.28;5002187;28;20556;-61
2021/05/30 03:10:45;;;;;;;5.88;4.00;;;;;;;5.82;100.00;97116.44;4984332;28;20539;-57
2021/05/30 03:13:13;;;;;;;5.38;4.88;;;;;;;5.76;100.00;97116.81;4982745;28;20108;-60
2021/05/30 03:15:41;;;;;;;5.25;4.75;;;;;;;5.82;100.00;97120.84;4987389;28;20508;-62
2021/05/30 03:18:09;;;;;;;5.53;5.05;;;;;;;6.00;100.00;97130.13;4983319;28;20457;-61
2021/05/30 03:20:38;;;;;;;7.80;5.78;;;;;;;6.08;100.00;97127.84;4989342;28;20061;-61
2021/05/30 03:23:08;;;;;;;6.28;5.68;;;;;;;6.11;100.00;97122.41;4985840;28;20492;-61
2021/05/30 03:25:36;;;;;;;6.70;6.10;;;;;;;6.18;100.00;97117.63;4984672;28;20147;-62
2021/05/30 03:28:05;;;;;;;7.55;6.60;;;;;;;6.23;100.00;97120.78;4985637;28;20430;-62
2021/05/30 03:30:33;;;;;;;7.88;6.05;;;;;;;6.28;100.00;97123.94;4990434;28;20065;-59
2021/05/30 03:33:01;;;;;;;6.68;5.97;;;;;;;6.24;100.00;97130.31;4982645;28;20070;-61
2021/05/30 03:35:29;;;;;;;6.45;5.75;;;;;;;6.27;100.00;97116.19;4988654;28;20066;-61
2021/05/30 03:37:59;;;;;;;6.90;5.78;;;;;;;6.35;100.00;97116.50;4983837;28;20070;-60
2021/05/30 03:40:29;;;;;;;6.57;5.87;;;;;;;6.36;100.00;97111.16;4987281;28;20066;-60
2021/05/30 03:42:57;;;;;;;6.43;5.82;;;;;;;6.56;100.00;97119.47;4985398;28;20070;-61
2021/05/30 03:45:26;;;;;;;7.57;5.25;;;;;;;6.71;100.00;97112.34;4988459;28;20069;-61
2021/05/30 03:47:54;;;;;;;6.68;5.85;;;;;;;6.67;100.00;97122.19;4984974;28;20062;-61
2021/05/30 03:50:22;;;;;;;7.90;5.93;;;;;;;7.57;100.00;97105.41;4987868;28;20085;-60
2021/05/30 03:52:51;;;;;;;7.25;6.15;;;;;;;8.66;100.00;97096.53;4983853;28;20081;-62
2021/05/30 03:55:20;;;;;;;7.72;6.00;;;;;;;9.94;100.00;97091.66;4986939;28;20031;-60
2021/05/30 03:57:48;;;;;;;6.95;5.47;;;;;;;10.62;100.00;97084.25;4987020;28;20085;-61
2021/05/30 04:00:18;;;;;;;5.55;4.90;;;;;;;11.57;100.00;97089.28;4985413;28;20070;-61
2021/05/30 04:02:47;;;;;;;5.63;4.45;;;;;;;12.35;100.00;97087.56;4984863;28;20073;-59
2021/05/30 04:05:16;;;;;;;5.20;4.50;;;;;;;12.84;100.00;97084.84;4985900;28;20054;-54
2021/05/30 04:07:44;;;;;;;5.55;4.35;;;;;;;12.97;100.00;97087.16;4982367;28;20080;-59
2021/05/30 04:10:14;;;;;;;4.97;4.20;;;;;;;14.09;98.01;97087.03;5007792;22;20088;-64
2021/05/30 04:12:43;;;;;;;4.70;4.07;;;;;;;14.75;89.90;97088.47;4988620;28;20076;-64
2021/05/30 04:15:13;;;;;;;4.75;4.22;;;;;;;15.27;79.58;97085.78;4965164;28;20062;-63
2021/05/30 04:17:42;;;;;;;4.38;3.97;;;;;;;14.58;88.15;97090.97;4990422;28;20062;-63
2021/05/30 04:20:13;;;;;;;4.35;3.78;;;;;;;15.19;82.63;97084.75;4984684;28;20058;-63
2021/05/30 04:22:41;;;;;;;4.45;4.03;;;;;;;14.63;85.96;97087.88;4977070;28;20456;-63
2021/05/30 04:25:11;;;;;;;4.85;4.07;;;;;;;14.40;89.86;97092.78;4984941;28;20085;-64
2021/05/30 04:27:41;;;;;;;4.75;4.25;;;;;;;14.93;85.28;97083.91;4987941;28;20071;-65
2021/05/30 04:30:12;;;;;;;6.50;4.22;;;;;;;15.88;78.04;97092.69;4985138;28;20122;-64
2021/05/30 04:32:41;;;;;;;4.43;3.95;;;;;;;16.49;72.55;97082.66;4984836;28;20069;-62
2021/05/30 04:35:10;;;;;;;6.05;4.28;;;;;;;16.82;69.08;97078.97;4964057;28;20061;-62
2021/05/30 04:37:39;;;;;;;4.60;3.95;;;;;;;16.17;74.65;97084.25;4979131;28;20049;-62
2021/05/30 04:40:09;;;;;;;4.60;4.20;;;;;;;16.82;70.59;97086.97;4979495;28;20461;-62
2021/05/30 04:42:37;;;;;;;4.90;4.40;;;;;;;17.08;71.66;97088.59;4970397;28;20081;-62
2021/05/30 04:45:07;;;;;;;5.07;4.40;;;;;;;17.27;67.71;97079.38;4980531;28;20062;-62
2021/05/30 04:47:36;;;;;;;5.28;4.20;;;;;;;17.07;67.39;97084.28;4985229;28;20069;-62
2021/05/30 04:50:05;;;;;;;8.13;4.97;;;;;;;17.96;61.99;97082.28;4979957;28;20069;-62
2021/05/30 04:52:39;;;;;;;4.80;4.30;;;;;;;18.83;57.86;97080.19;4965946;28;20096;-62
2021/05/30 04:55:09;;;;;;;5.10;4.60;;;;;;;17.84;63.29;97084.53;4962964;28;20082;-63
2021/05/30 04:57:38;;;;;;;5.07;4.57;;;;;;;19.45;54.01;97069.16;4993243;28;20663;-62
2021/05/30 05:00:07;;;;;;;4.72;4.28;;;;;;;19.83;51.88;97078.94;4982638;28;20057;-62
2021/05/30 05:02:36;;;;;;;5.93;4.10;;;;;;;20.11;50.58;97077.19;4983965;28;20078;-63
2021/05/30 05:05:05;;;;;;;4.63;4.22;;;;;;;21.69;45.33;97072.47;4992154;28;20088;-61
2021/05/30 05:07:34;;;;;;;4.32;3.92;;;;;;;21.15;46.58;97073.16;4981839;28;20081;-62
2021/05/30 05:10:02;;;;;;;4.97;4.57;;;;;;;19.51;51.54;97082.78;4985898;28;20104;-65
2021/05/30 05:12:30;;;;;;;5.32;4.45;;;;;;;20.77;47.93;97085.06;4966295;28;20082;-64
2021/05/30 05:14:58;;;;;;;5.35;4.82;;;;;;;20.60;48.42;97080.97;4982454;28;20069;-64
2021/05/30 05:17:26;;;;;;;5.00;4.53;;;;;;;19.89;50.98;97088.88;4983016;28;20469;-62
2021/05/30 05:19:55;;;;;;;5.65;4.30;;;;;;;19.74;53.50;97080.84;4983605;28;20058;-64
2021/05/30 05:22:23;;;;;;;5.78;4.07;;;;;;;20.19;50.90;97080.75;4963196;28;20062;-64
2021/05/30 05:25:01;;;;;;;4.93;4.10;;;;;;;20.69;50.35;97079.84;4988081;28;20073;-64
2021/05/30 05:27:29;;;;;;;5.93;4.60;;;;;;;20.69;49.40;97084.38;4986623;28;20092;-64
2021/05/30 05:29:57;;;;;;;4.80;4.30;;;;;;;19.48;52.18;97080.47;4988256;28;20469;-64
2021/05/30 05:32:25;;;;;;;5.43;4.38;;;;;;;21.39;47.75;97080.78;4983970;28;20440;-65
2021/05/30 05:34:53;;;;;;;4.60;4.20;;;;;;;21.43;46.52;97076.66;4984795;28;20058;-64
2021/05/30 05:37:21;;;;;;;5.35;4.28;;;;;;;20.65;48.74;97088.44;4983133;28;20073;-65
2021/05/30 05:39:49;;;;;;;5.15;4.38;;;;;;;21.72;46.19;97082.81;4988679;28;20816;-62
2021/05/30 05:42:18;;;;;;;5.70;4.32;;;;;;;21.48;46.52;97084.13;4984752;28;22109;-64
2021/05/30 05:44:45;;;;;;;5.43;4.72;;;;;;;21.10;45.66;97079.94;4988524;28;20085;-65
2021/05/30 05:47:13;;;;;;;5.03;4.45;;;;;;;20.35;50.54;97081.34;4984412;28;20085;-64
2021/05/30 05:49:41;;;;;;;4.93;4.45;;;;;;;19.84;53.80;97084.06;4987759;28;20070;-63
2021/05/30 05:52:09;;;;;;;7.03;4.50;;;;;;;19.98;53.39;97086.91;4984125;28;20097;-63
2021/05/30 05:54:50;;;;;;;6.50;4.97;;;;;;;19.32;54.46;97082.34;4989205;28;20125;-63
2021/05/30 05:57:18;;;;;;;6.50;5.32;;;;;;;19.21;55.43;97083.63;4980943;28;20341;-64
2021/05/30 05:59:46;;;;;;;5.95;5.10;;;;;;;18.92;58.50;97080.91;4984563;28;20481;-62
2021/05/30 06:02:14;;;;;;;7.20;6.32;;;;;;;17.58;63.16;97083.94;4983984;28;20074;-63
2021/05/30 06:04:44;;;;;;;6.63;5.70;;;;;;;16.18;77.69;97091.28;4984599;28;20062;-63
2021/05/30 06:07:12;;;;;;;8.20;6.32;;;;;;;15.80;85.41;97096.16;4986992;28;20176;-63
2021/05/30 06:09:40;;;;;;;8.75;6.97;;;;;;;15.01;95.79;97097.28;4989732;28;20101;-63
2021/05/30 06:12:10;;;;;;;8.27;7.00;;;;;;;14.88;99.98;97100.34;4991429;28;20551;-63
2021/05/30 06:14:38;;;;;;;8.45;6.95;;;;;;;14.83;100.00;97097.31;4985441;28;20074;-63
2021/05/30 06:17:07;;;;;;;8.25;6.82;;;;;;;14.23;100.00;97103.25;4986464;28;20077;-63
2021/05/30 06:19:35;;;;;;;9.35;6.50;;;;;;;13.96;100.00;97105.97;4985027;28;20058;-62
2021/05/30 06:22:04;;;;;;;8.25;7.07;;;;;;;14.02;100.00;97110.69;4992276;28;20078;-62
2021/05/30 06:24:32;;;;;;;8.52;7.32;;;;;;;14.48;100.00;97106.94;4989868;28;20092;-63
2021/05/30 06:27:01;;;;;;;9.43;7.00;;;;;;;14.57;100.00;97105.25;4984824;28;20168;-63
2021/05/30 06:29:30;;;;;;;8.77;6.90;;;;;;;14.79;100.00;97109.22;4988691;28;20069;-63
2021/05/30 06:31:58;;;;;;;9.60;6.95;;;;;;;14.51;100.00;97103.19;4989114;28;20074;-62
2021/05/30 06:34:26;;;;;;;8.52;6.72;;;;;;;14.96;100.00;97105.69;4985150;28;20076;-63
2021/05/30 06:36:54;;;;;;;7.55;6.75;;;;;;;15.10;100.00;97098.97;4991078;28;20488;-62
2021/05/30 06:39:23;;;;;;;9.48;6.97;;;;;;;15.04;100.00;97096.13;4986851;28;20085;-62
2021/05/30 06:41:51;;;;;;;7.93;6.70;;;;;;;14.83;100.00;97099.13;4987595;28;20070;-62
2021/05/30 06:44:19;;;;;;;8.80;6.82;;;;;;;15.40;100.00;97094.16;4969453;28;20058;-63
2021/05/30 06:46:48;;;;;;;8.95;6.80;;;;;;;15.07;100.00;97088.69;4968266;28;20168;-63
2021/05/30 06:49:16;;;;;;;8.50;6.88;;;;;;;14.80;100.00;97094.16;4975309;28;20050;-62
2021/05/30 06:51:45;;;;;;;8.98;7.40;;;;;;;14.79;100.00;97082.66;4993046;28;20080;-62
2021/05/30 06:54:13;;;;;;;7.97;7.15;;;;;;;15.32;98.06;97084.31;4967240;28;20069;-63
2021/05/30 06:56:40;;;;;;;9.10;7.05;;;;;;;15.63;93.31;97084.63;4988417;28;20101;-63
2021/05/30 06:59:08;;;;;;;12.60;7.53;;;;;;;15.07;92.77;97090.47;4968054;28;20053;-62
2021/05/30 07:01:36;;;;;;;9.50;7.45;;;;;;;15.62;91.03;97090.94;4983792;28;20194;-63
2021/05/30 07:04:06;;;;;;;7.97;7.00;;;;;;;15.98;87.17;97093.38;4969327;28;20073;-62
2021/05/30 07:06:34;;;;;;;10.13;7.00;;;;;;;15.87;93.96;97086.56;4986764;28;20085;-63
2021/05/30 07:09:05;;;;;;;8.32;7.00;;;;;;;15.44;92.58;97088.34;4991234;28;20551;-62
2021/05/30 07:11:34;;;;;;;10.38;8.07;;;;;;;15.44;88.02;97092.84;4982627;28;20112;-63
2021/05/30 07:14:03;;;;;;;10.70;7.20;;;;;;;16.05;87.73;97090.91;4989893;28;20074;-63
2021/05/30 07:16:31;;;;;;;9.20;7.53;;;;;;;15.80;91.10;97084.72;4987978;28;20061;-63
2021/05/30 07:19:00;;;;;;;11.20;8.13;;;;;;;15.97;93.56;97091.72;4989321;28;20078;-64
2021/05/30 07:22:11;;;;;;;9.20;7.22;;;;;;;15.79;91.34;97086.50;4969694;28;20053;-63
2021/05/30 07:24:39;;;;;;;8.05;7.10;;;;;;;15.27;96.48;97093.75;4988889;28;20165;-63
2021/05/30 07:27:08;;;;;;;10.88;7.85;;;;;;;15.60;93.59;97092.91;4983779;28;20066;-63
2021/05/30 07:29:36;;;;;;;11.77;7.18;;;;;;;15.57;97.53;97090.56;4988554;28;20070;-64
2021/05/30 07:32:05;;;;;;;12.35;8.23;;;;;;;15.92;95.51;97090.53;4965924;28;20070;-63
2021/05/30 07:34:33;;;;;;;9.77;7.70;;;;;;;15.41;96.16;97087.84;4984071;28;20069;-63
2021/05/30 07:37:02;;;;;;;10.55;7.45;;;;;;;15.97;90.80;97089.06;4985338;28;20433;-63
2021/05/30 07:39:30;;;;;;;12.88;7.75;;;;;;;16.31;89.88;97078.31;4985438;28;20075;-63
2021/05/30 07:41:58;;;;;;;10.73;7.47;;;;;;;16.25;91.45;97073.66;4962943;28;20070;-63
2021/05/30 07:44:26;;;;;;;8.77;7.30;;;;;;;16.38;82.30;97070.50;4967424;28;20073;-63
2021/05/30 07:46:55;;;;;;;9.60;7.82;;;;;;;16.56;85.17;97070.31;4984779;28;20073;-63
2021/05/30 07:49:24;;;;;;;7.72;6.75;;;;;;;16.63;81.94;97071.31;4986456;28;20062;-63
2021/05/30 07:51:52;;;;;;;9.57;7.25;;;;;;;17.23;74.30;97065.56;4967198;28;20084;-63
2021/05/30 07:54:22;;;;;;;9.05;7.00;;;;;;;18.17;67.96;97061.16;4982230;28;20055;-63
2021/05/30 07:56:51;;;;;;;8.43;6.18;;;;;;;17.84;66.00;97059.69;4986276;28;20066;-63
2021/05/30 07:59:20;;;;;;;6.85;5.25;;;;;;;17.87;56.01;97056.66;4977742;28;20512;-62
2021/05/30 08:01:49;;;;;;;5.60;4.80;;;;;;;17.92;53.49;97062.28;4985300;28;20066;-62
2021/05/30 08:04:17;;;;;;;7.80;4.05;;;;;;;18.66;48.64;97052.75;4986594;28;20547;-62
2021/05/30 08:06:46;;;;;;;5.00;3.90;;;;;;;18.02;46.73;97058.38;4987972;28;20124;-63
2021/05/30 08:09:13;;;;;;;5.32;3.78;;;;;;;16.76;50.03;97057.53;4980621;28;20070;-63
2021/05/30 08:11:41;;;;;;;4.15;3.70;;;;;;;16.74;50.85;97054.16;4984219;28;20068;-62
2021/05/30 08:14:11;;;;;;;4.57;3.70;;;;;;;16.99;52.58;97053.13;4983481;28;20476;-62
2021/05/30 08:16:43;;;;;;;6.40;3.95;;;;;;;16.40;52.93;97070.31;4985575;28;20070;-62
2021/05/30 08:19:12;;;;;;;4.75;3.00;;;;;;;16.56;48.01;97057.03;4987596;28;20080;-61
2021/05/30 08:21:41;;;;;;;4.03;3.40;;;;;;;17.28;45.93;97057.91;4966733;28;20085;-61
2021/05/30 08:24:09;;;;;;;6.22;3.67;;;;;;;17.10;47.59;97051.94;4984363;28;20074;-62
2021/05/30 08:26:50;;;;;;;3.88;3.20;;;;;;;16.51;48.23;97062.00;4968630;28;20069;-63
2021/05/30 08:29:19;;;;;;;3.78;3.17;;;;;;;15.94;49.67;97075.25;4963905;28;20061;-63
2021/05/30 08:31:49;;;;;;;4.90;3.22;;;;;;;15.39;48.65;97061.44;4988736;28;20060;-62
2021/05/30 08:34:17;;;;;;;5.25;3.63;;;;;;;15.84;47.62;97067.41;4964597;28;20068;-62
2021/05/30 08:36:45;;;;;;;6.03;3.28;;;;;;;15.76;50.22;97064.72;4964814;28;20072;-62
2021/05/30 08:39:13;;;;;;;4.47;3.63;;;;;;;16.42;49.06;97060.34;4984687;28;20161;-62
2021/05/30 08:41:42;;;;;;;6.50;3.90;;;;;;;16.61;46.45;97058.16;4985973;28;20074;-62
2021/05/30 08:44:12;;;;;;;3.60;3.20;;;;;;;16.81;46.90;97049.84;4957064;28;20126;-63
2021/05/30 08:46:42;;;;;;;3.03;2.42;;;;;;;16.49;44.20;97046.19;4975044;28;20113;-62
2021/05/30 08:49:11;;;;;;;4.15;3.22;;;;;;;17.15;43.77;97052.28;4983175;28;20427;-62
2021/05/30 08:51:41;;;;;;;3.10;2.80;;;;;;;16.42;41.89;97053.19;4993411;28;20205;-63
2021/05/30 08:54:10;;;;;;;6.70;3.23;;;;;;;16.82;41.59;97052.34;4982119;28;20081;-62
2021/05/30 08:56:40;;;;;;;3.85;3.25;;;;;;;17.30;44.02;97050.53;4965560;28;20077;-63
2021/05/30 08:59:30;;;;;;;6.00;3.40;;;;;;;17.55;41.80;97051.28;4980352;28;20449;-62
2021/05/30 09:02:00;;;;;;;3.50;3.20;;;;;;;17.63;42.47;97050.41;4961620;28;20064;-62
2021/05/30 09:04:32;;;;;;;;;;;;;;;18.19;39.08;97050.28;4981770;28;20555;-62
2021/05/30 09:07:00;;;;;;;6.05;3.33;;;;;;;18.18;38.31;97043.28;4982388;28;19951;-63
2021/05/30 09:09:36;;;;;;;3.65;2.95;;;;;;;17.78;39.36;97051.34;4984708;28;20516;-63
2021/05/30 09:12:06;;;;;;;5.90;3.58;;;;;;;17.57;39.06;97048.44;4982221;28;20462;-64
2021/05/30 09:14:40;;;;;;;7.85;3.53;;;;;;;17.70;40.32;97046.03;4986969;28;20069;-64
2021/05/30 09:17:10;;;;;;;10.52;3.97;;;;;;;18.12;40.96;97052.00;4981463;28;20066;-64
2021/05/30 09:19:43;;;;;;;4.55;3.50;;;;;;;17.29;39.71;97046.22;4980172;28;20062;-64
2021/05/30 09:22:16;;;;;;;5.70;3.65;;;;;;;16.78;45.29;97044.88;4983465;28;20093;-64
2021/05/30 09:25:04;;;;;;;6.35;3.60;;;;;;;17.03;43.29;97038.50;4984946;28;20486;-64
2021/05/30 09:27:34;;;;;;;4.38;3.40;;;;;;;17.20;44.01;97036.59;4985454;28;20074;-63
2021/05/30 09:30:27;;;;;;;4.03;3.13;;;;;;;17.59;43.94;97037.63;4985936;28;20058;-64
2021/05/30 09:33:11;;;;;;;4.97;3.30;;;;;;;17.82;39.43;97033.16;4980072;28;20089;-64
2021/05/30 09:35:57;;;;;;;4.30;2.80;;;;;;;17.57;37.19;97024.44;4987555;28;20074;-64
2021/05/30 09:38:28;;;;;;;3.33;2.50;;;;;;;17.54;37.18;97024.78;4984350;28;20085;-64
2021/05/30 09:40:57;;;;;;;5.40;2.72;;;;;;;17.24;41.71;97032.59;4983613;28;20069;-63
2021/05/30 09:43:27;;;;;;;5.30;3.53;;;;;;;17.19;41.45;97037.59;4982102;28;20066;-64
2021/05/30 09:46:13;;;;;;;5.93;3.50;;;;;;;17.61;40.69;97036.41;4984374;28;20577;-64
2021/05/30 09:48:44;;;;;;;3.85;3.05;;;;;;;17.56;38.06;97036.13;4988264;28;20086;-64
2021/05/30 09:51:37;;;;;;;4.20;3.10;;;;;;;17.62;37.70;97045.25;4985530;28;20081;-63
2021/05/30 09:54:06;;;;;;;6.25;4.38;;;;;;;18.08;37.99;97034.69;4983850;28;20621;-63
2021/05/30 09:56:41;;;;;;;3.95;3.50;;;;;;;18.23;35.40;97036.38;4983963;28;20085;-64
2021/05/30 09:59:11;;;;;;;4.97;3.10;;;;;;;17.91;33.98;97042.78;4979870;28;20072;-63
2021/05/30 10:01:52;;;;;;;3.53;2.80;;;;;;;18.07;36.73;97036.53;4983190;28;20089;-63
2021/05/30 10:04:22;;;;;;;4.53;2.75;;;;;;;18.29;36.61;97026.00;4980803;28;20066;-63
2021/05/30 10:06:51;;;;;;;4.55;3.22;;;;;;;17.84;35.32;97036.50;4984078;28;20082;-63
2021/05/30 10:09:19;;;;;;;3.65;3.03;;;;;;;18.11;34.67;97035.16;4978986;28;20073;-62
2021/05/30 10:11:47;;;;;;;4.05;2.85;;;;;;;17.98;34.22;97026.91;4982103;28;20492;-64
2021/05/30 10:14:15;;;;;;;4.95;3.33;;;;;;;17.99;38.19;97028.56;4976633;28;20153;-63
2021/05/30 10:16:43;;;;;;;4.00;3.47;;;;;;;18.06;38.05;97032.16;4980563;28;20485;-62
2021/05/30 10:19:15;;;;;;;4.47;3.53;;;;;;;18.30;40.99;97027.66;4978633;28;20073;-61
2021/05/30 10:21:50;;;;;;;4.68;3.50;;;;;;;18.41;37.98;97028.09;4982061;28;20490;-61
2021/05/30 10:24:19;;;;;;;5.05;3.30;;;;;;;17.93;38.18;97023.94;4980047;28;20066;-62
2021/05/30 10:26:49;;;;;;;5.80;3.80;;;;;;;17.68;37.62;97031.22;4986969;28;20084;-62
2021/05/30 10:29:18;;;;;;;6.28;3.30;;;;;;;17.67;40.85;97025.06;4983645;28;20085;-63
2021/05/30 10:31:47;;;;;;;5.60;3.53;;;;;;;18.03;38.25;97030.72;4986133;28;20078;-62
2021/05/30 10:34:21;;;;;;;4.50;3.53;;;;;;;17.82;38.19;97019.81;4986639;28;20062;-62
2021/05/30 10:37:24;;;;;;;3.83;3.15;;;;;;;18.12;39.54;97022.63;4991681;28;20082;-62
2021/05/30 10:39:55;;;;;;;4.50;3.88;;;;;;;18.30;39.49;97025.00;4982931;28;20122;-62
2021/05/30 10:42:25;;;;;;;5.07;3.83;;;;;;;18.09;38.37;97029.16;4987266;28;20300;-62
2021/05/30 10:44:56;;;;;;;4.05;3.45;;;;;;;17.86;40.64;97018.50;4982855;28;20065;-61
2021/05/30 10:48:17;;;;;;;4.50;3.55;;;;;;;18.26;42.25;97021.84;4993182;28;20066;-61
2021/05/30 10:50:55;;;;;;;4.10;3.28;;;;;;;18.14;39.10;97023.31;4984079;28;20065;-61
2021/05/30 10:53:38;;;;;;;4.32;3.30;;;;;;;18.02;37.27;97041.53;4987168;28;20478;-62
2021/05/30 10:56:21;;;;;;;4.85;3.65;;;;;;;18.41;39.59;97028.09;4987222;28;20528;-63
2021/05/30 10:59:33;;;;;;;3.85;3.53;;;;;;;18.97;39.75;97025.06;4985262;28;20725;-62
2021/05/30 11:02:13;;;;;;;4.00;3.55;;;;;;;18.78;38.44;97022.94;4982127;28;20051;-61
2021/05/30 11:04:41;;;;;;;6.43;3.78;;;;;;;18.97;36.22;97012.53;4982073;28;20131;-62
2021/05/30 11:07:38;;;;;;;4.80;3.65;;;;;;;19.06;37.61;97013.25;4983698;28;20070;-62
2021/05/30 11:10:12;;;;;;;5.43;4.28;;;;;;;19.06;40.60;97017.78;4981573;28;20070;-61
2021/05/30 11:12:57;;;;;;;6.18;4.03;;;;;;;18.99;41.18;97017.69;4987389;28;20387;-61
2021/05/30 11:15:32;;;;;;;8.13;5.50;;;;;;;18.42;39.82;97020.91;4981889;28;20396;-63
2021/05/30 11:18:01;;;;;;;4.22;3.72;;;;;;;18.54;41.10;97022.13;4990375;28;20062;-62
2021/05/30 11:20:44;;;;;;;5.72;3.88;;;;;;;18.70;41.81;97016.63;4981885;28;20081;-65
2021/05/30 11:23:22;;;;;;;6.22;3.80;;;;;;;18.43;41.77;97004.69;4978213;28;20088;-63
2021/05/30 11:25:53;;;;;;;4.55;4.07;;;;;;;18.56;42.46;97017.44;4983862;28;20074;-62
2021/05/30 11:28:22;;;;;;;5.00;4.50;;;;;;;18.38;40.94;97007.09;4984498;28;20458;-62
2021/05/30 11:30:53;;;;;;;5.68;4.30;;;;;;;18.57;42.29;97005.72;4983460;28;20567;-62
2021/05/30 11:33:40;;;;;;;4.57;3.53;;;;;;;18.00;39.99;97003.56;4991379;28;20162;-61
2021/05/30 11:36:20;;;;;;;5.65;4.78;;;;;;;18.29;38.34;97016.16;4980502;28;20066;-61
2021/05/30 11:38:52;;;;;;;5.57;4.40;;;;;;;18.42;40.61;97007.56;4986085;28;20046;-62
2021/05/30 11:41:26;;;;;;;7.32;4.00;;;;;;;18.32;38.55;97009.63;4984169;28;20073;-62
2021/05/30 11:43:56;;;;;;;5.68;4.00;;;;;;;18.80;41.11;97004.88;4985645;28;20066;-62
2021/05/30 11:46:24;;;;;;;5.03;4.10;;;;;;;18.13;40.59;97001.09;4979589;28;20073;-62
2021/05/30 11:49:05;;;;;;;4.57;3.60;;;;;;;18.74;40.52;97009.09;4990222;28;20088;-62
2021/05/30 11:51:55;;;;;;;7.03;3.78;;;;;;;18.54;39.13;97015.94;4984403;28;20327;-62